Breb Countess — CQIR2 — position and weather

sailwx.info

Track history (hours):
 
Tides and Currents Weather Stations Pressure Air Temp Water Temp Dewpoint Dewpoint Depression Visibility Wind Speed Wind Dir Waves Ship Positions

Breb Countess

Last reported at 2017-Oct-17 16:06 UTC. Time now 2017-Oct-17 17:11 UTC.
Position N 37°27' E 009°06'.

Length 108 m; draft 6.5 m.

Type: Cargo ship. MMSI: 255806043.

Date/timePositionNaut miles runAvg speedWind from/ knotsBaromVisibWave heightAir tempDewpointWater temp
2017-Oct-17 16:06N 37°27' E 009°06'17010.0
2017-Oct-16 23:01N 36°53' E 012°36'110.5
2017-Oct-16 22:54N 36°53' E 012°37'410.5
2017-Oct-16 22:30N 36°51' E 012°42'510.6
2017-Oct-16 22:00N 36°48' E 012°47'810.5
2017-Oct-16 21:15N 36°44' E 012°56'310.3
2017-Oct-16 20:58N 36°43' E 012°59'610.5
2017-Oct-16 20:23N 36°40' E 013°06'410.7
2017-Oct-16 20:00N 36°38' E 013°11'610.8
2017-Oct-16 19:27N 36°36' E 013°17'510.9
2017-Oct-16 19:00N 36°33' E 013°23'610.9
2017-Oct-16 18:30N 36°31' E 013°29'710.9
2017-Oct-16 17:49N 36°27' E 013°37'310.7
2017-Oct-16 17:30N 36°26' E 013°40'510.4
2017-Oct-16 17:00N 36°23' E 013°46'610.3
2017-Oct-16 16:24N 36°20' E 013°53'410.3
2017-Oct-16 16:00N 36°19' E 013°58'610.2
2017-Oct-16 15:24N 36°16' E 014°04'410.4
2017-Oct-16 15:00N 36°14' E 014°09'510.7
2017-Oct-16 14:30N 36°12' E 014°15'1110.6
2017-Oct-16 13:30N 36°05' E 014°26'611.0
2017-Oct-16 13:00N 36°01' E 014°31'610.7
2017-Oct-16 12:28N 35°58' E 014°36'510.0
2017-Oct-16 12:00N 35°55' E 014°40'5 9.2
2017-Oct-16 11:29N 35°53' E 014°46'1 0.4
2017-Oct-16 09:02N 35°54' E 014°47'0 0.0
2017-Oct-16 05:27N 35°54' E 014°47'3 3.2
2017-Oct-16 04:41N 35°52' E 014°49'1 5.5
2017-Oct-16 04:29N 35°52' E 014°50'4 8.1
2017-Oct-16 03:59N 35°55' E 014°54'511.0
2017-Oct-16 03:30N 35°59' E 014°58'1010.9
2017-Oct-16 02:35N 36°07' E 015°04'111.1
2017-Oct-16 02:27N 36°09' E 015°05'26310.5
2017-Oct-15 01:25N 39°40' E 018°23'411.0
2017-Oct-15 01:00N 39°44' E 018°27'3110.8
2017-Oct-14 22:11N 40°13' E 018°36'211.2
2017-Oct-14 22:00N 40°15' E 018°35'811.2
2017-Oct-14 21:18N 40°23' E 018°32'411.3
2017-Oct-14 20:57N 40°26' E 018°30'511.2
2017-Oct-14 20:30N 40°30' E 018°26'611.2
2017-Oct-14 20:00N 40°34' E 018°22'611.6
2017-Oct-14 19:30N 40°39' E 018°17'29110.7
2017-Oct-13 16:17N 44°16' E 013°53'410.7
2017-Oct-13 15:54N 44°19' E 013°50'410.8
2017-Oct-13 15:30N 44°23' E 013°46'710.8
2017-Oct-13 14:51N 44°29' E 013°41'410.7
2017-Oct-13 14:30N 44°32' E 013°38'610.8
2017-Oct-13 13:59N 44°37' E 013°34'510.7
2017-Oct-13 13:29N 44°41' E 013°30'510.7
2017-Oct-13 13:00N 44°45' E 013°26'510.7
2017-Oct-13 12:30N 44°50' E 013°22'510.5
2017-Oct-13 12:00N 44°54' E 013°17'510.4
2017-Oct-13 11:30N 44°58' E 013°13'510.6
2017-Oct-13 11:00N 45°03' E 013°09'510.8
2017-Oct-13 10:30N 45°07' E 013°06'510.6
2017-Oct-13 10:00N 45°12' E 013°03'510.5
2017-Oct-13 09:30N 45°17' E 013°00'5 9.6
2017-Oct-13 09:00N 45°22' E 012°59'510.5
2017-Oct-13 08:30N 45°25' E 013°05'510.7
2017-Oct-13 08:00N 45°29' E 013°11'510.7
2017-Oct-13 07:30N 45°32' E 013°16'510.6
2017-Oct-13 07:00N 45°35' E 013°23'510.7
2017-Oct-13 06:30N 45°37' E 013°30'5 9.1
2017-Oct-13 06:00N 45°37' E 013°37'510.1
2017-Oct-13 05:30N 45°34' E 013°42'2 2.5
2017-Oct-13 04:53N 45°33' E 013°45'0 0.0
2017-Oct-13 04:29N 45°33' E 013°45'0 0.0
2017-Oct-13 03:59N 45°33' E 013°45'0 0.0
2017-Oct-13 03:26N 45°33' E 013°44'0 0.0
2017-Oct-13 02:59N 45°33' E 013°44'0 0.0
2017-Oct-13 02:23N 45°33' E 013°44'0 0.0
2017-Oct-13 01:59N 45°33' E 013°44'0 0.0
2017-Oct-13 01:29N 45°33' E 013°44'0 0.0
2017-Oct-13 00:56N 45°33' E 013°44'0 0.0
2017-Oct-13 00:29N 45°33' E 013°44'0 0.0
2017-Oct-12 23:59N 45°33' E 013°44'0 0.0
2017-Oct-12 23:26N 45°33' E 013°44'0 0.0
2017-Oct-12 22:59N 45°33' E 013°45'0 0.0
2017-Oct-12 22:29N 45°33' E 013°44'0 0.0
2017-Oct-12 21:59N 45°33' E 013°44'0 0.0
2017-Oct-12 21:29N 45°33' E 013°45'0 0.0
2017-Oct-12 20:59N 45°33' E 013°45'0 0.0
2017-Oct-12 20:29N 45°33' E 013°44'0 0.0
2017-Oct-12 19:56N 45°33' E 013°45'0 0.0
2017-Oct-12 19:29N 45°33' E 013°44'0 0.0
2017-Oct-12 18:59N 45°33' E 013°44'0 0.0
2017-Oct-12 18:26N 45°33' E 013°45'0 0.0
2017-Oct-12 17:56N 45°33' E 013°44'0 0.0
2017-Oct-12 17:29N 45°33' E 013°44'0 0.0
2017-Oct-12 16:56N 45°33' E 013°45'0 0.0
2017-Oct-12 16:26N 45°33' E 013°44'0 0.0
2017-Oct-12 15:56N 45°33' E 013°44'0 0.0
2017-Oct-12 15:29N 45°33' E 013°44'0 0.0
2017-Oct-12 14:59N 45°33' E 013°45'0 0.0
2017-Oct-12 14:26N 45°33' E 013°44'0 0.0
2017-Oct-12 13:53N 45°33' E 013°45'0 0.0
2017-Oct-12 13:29N 45°33' E 013°44'0 0.0
2017-Oct-12 12:56N 45°33' E 013°45'0 0.0
2017-Oct-12 12:11N 45°33' E 013°44'0 0.0
2017-Oct-12 11:50N 45°33' E 013°45'0 0.0
2017-Oct-12 11:26N 45°33' E 013°45'0 0.0
2017-Oct-12 10:56N 45°33' E 013°44'0 0.0
2017-Oct-12 10:29N 45°33' E 013°44'0 0.0
2017-Oct-12 09:41N 45°33' E 013°44'0 0.0
2017-Oct-12 09:29N 45°33' E 013°45'0 0.0
2017-Oct-12 08:56N 45°33' E 013°45'0 0.0
2017-Oct-12 08:29N 45°33' E 013°44'0 0.0
2017-Oct-12 07:50N 45°33' E 013°44'0 0.0
2017-Oct-12 07:23N 45°33' E 013°44'0 0.0
2017-Oct-12 06:59N 45°33' E 013°44'0 0.0
2017-Oct-12 06:29N 45°33' E 013°44'0 0.0
2017-Oct-12 05:56N 45°33' E 013°45'0 0.0
2017-Oct-12 05:29N 45°33' E 013°44'0 0.0
2017-Oct-12 04:59N 45°33' E 013°45'0 0.0
2017-Oct-12 04:29N 45°33' E 013°44'0 0.0
2017-Oct-12 03:56N 45°33' E 013°44'0 0.0
2017-Oct-12 03:29N 45°33' E 013°45'0 0.0
2017-Oct-12 02:59N 45°33' E 013°45'0 0.0
2017-Oct-12 02:29N 45°33' E 013°44'0 0.0
2017-Oct-12 01:56N 45°33' E 013°45'0 0.0
2017-Oct-12 01:29N 45°33' E 013°45'0 0.0
2017-Oct-12 00:53N 45°33' E 013°44'0 0.0
2017-Oct-12 00:17N 45°33' E 013°44'0 0.0
2017-Oct-11 23:59N 45°33' E 013°44'0 0.0
2017-Oct-11 23:26N 45°33' E 013°44'0 0.0
2017-Oct-11 22:56N 45°33' E 013°44'0 0.0
2017-Oct-11 22:29N 45°33' E 013°44'0 0.0
2017-Oct-11 21:56N 45°33' E 013°44'0 0.0
2017-Oct-11 21:26N 45°33' E 013°44'0 0.0
2017-Oct-11 20:56N 45°33' E 013°44'0 0.0
2017-Oct-11 20:29N 45°33' E 013°44'0 0.0
2017-Oct-11 19:59N 45°33' E 013°44'0 0.0
2017-Oct-11 19:29N 45°33' E 013°45'0 0.0
2017-Oct-11 18:53N 45°33' E 013°45'0 0.0
2017-Oct-11 18:29N 45°33' E 013°45'0 0.0
2017-Oct-11 17:59N 45°33' E 013°44'0 0.0
2017-Oct-11 17:29N 45°33' E 013°45'0 0.0
2017-Oct-11 16:59N 45°33' E 013°45'0 0.0
2017-Oct-10 23:59N 45°33' E 013°45'0 0.0
2017-Oct-10 23:29N 45°33' E 013°45'0 0.0
2017-Oct-10 22:56N 45°33' E 013°45'0 0.0
2017-Oct-10 22:26N 45°33' E 013°44'0 0.0
2017-Oct-10 21:53N 45°33' E 013°44'0 0.0
2017-Oct-10 21:29N 45°33' E 013°44'0 0.0
2017-Oct-10 20:59N 45°33' E 013°44'0 0.0
2017-Oct-10 20:26N 45°33' E 013°44'0 0.0
2017-Oct-10 19:56N 45°33' E 013°44'0 0.0
2017-Oct-10 19:29N 45°33' E 013°44'0 0.0
2017-Oct-10 18:59N 45°33' E 013°45'0 0.0
2017-Oct-10 18:29N 45°33' E 013°45'0 0.0
2017-Oct-10 17:56N 45°33' E 013°44'0 0.0
2017-Oct-10 17:29N 45°33' E 013°44'0 0.0
2017-Oct-10 16:53N 45°33' E 013°45'0 0.0
2017-Oct-10 16:29N 45°33' E 013°44'0 0.0
2017-Oct-10 15:59N 45°33' E 013°45'0 0.0
2017-Oct-10 15:29N 45°33' E 013°45'0 0.0
2017-Oct-10 14:59N 45°33' E 013°45'2 1.7
2017-Oct-10 14:00N 45°34' E 013°42'3 5.6
2017-Oct-10 13:30N 45°34' E 013°38'4 7.5
2017-Oct-10 13:00N 45°34' E 013°33'4 8.6
2017-Oct-10 12:30N 45°33' E 013°27'4 8.8
2017-Oct-10 12:00N 45°30' E 013°22'5 9.3
2017-Oct-10 11:30N 45°29' E 013°16'5 9.9
2017-Oct-10 11:00N 45°27' E 013°09'510.4
2017-Oct-10 10:30N 45°24' E 013°03'510.3
2017-Oct-10 10:00N 45°22' E 012°56'510.5
2017-Oct-10 09:31N 45°20' E 012°49'510.2
2017-Oct-10 09:00N 45°18' E 012°42'510.4
2017-Oct-10 08:30N 45°16' E 012°36'4 8.6
2017-Oct-10 08:00N 45°14' E 012°30'6 8.6
2017-Oct-10 07:18N 45°13' E 012°21'3 7.3
2017-Oct-10 06:57N 45°14' E 012°18'2 4.5
2017-Oct-10 06:30N 45°13' E 012°16'0 0.5
2017-Oct-10 06:00N 45°12' E 012°16'0 0.0
2017-Oct-10 05:27N 45°12' E 012°16'0 0.0
2017-Oct-10 04:39N 45°12' E 012°16'0 0.0
2017-Oct-10 04:24N 45°12' E 012°16'0 0.0
2017-Oct-10 04:00N 45°12' E 012°16'0 0.0
2017-Oct-10 03:24N 45°12' E 012°16'0 0.0
2017-Oct-10 03:00N 45°12' E 012°16'0 0.0
2017-Oct-10 02:30N 45°12' E 012°16'0 0.0
2017-Oct-10 02:00N 45°12' E 012°16'0 0.0
2017-Oct-10 01:27N 45°12' E 012°16'0 0.0
2017-Oct-10 01:00N 45°12' E 012°16'0 0.0
2017-Oct-10 00:27N 45°12' E 012°16'0 0.0
2017-Oct-10 00:00N 45°12' E 012°16'0 0.0
2017-Oct-09 23:21N 45°12' E 012°16'0 0.0
2017-Oct-09 22:57N 45°12' E 012°16'0 0.0
2017-Oct-09 22:27N 45°12' E 012°16'0 0.0
2017-Oct-09 22:00N 45°12' E 012°16'0 0.0
2017-Oct-09 21:27N 45°12' E 012°16'0 0.0
2017-Oct-09 20:57N 45°12' E 012°16'0 0.0
2017-Oct-09 20:30N 45°12' E 012°16'0 0.0
2017-Oct-09 20:00N 45°12' E 012°16'0 0.0
2017-Oct-09 18:54N 45°12' E 012°16'0 0.0
2017-Oct-09 18:00N 45°12' E 012°16'0 0.0
2017-Oct-09 17:24N 45°12' E 012°16'0 0.0
2017-Oct-09 17:00N 45°12' E 012°16'0 0.0
2017-Oct-09 16:24N 45°12' E 012°16'0 0.0
2017-Oct-09 16:00N 45°12' E 012°16'0 0.0
2017-Oct-09 15:30N 45°12' E 012°16'0 0.0
2017-Oct-09 15:00N 45°12' E 012°16'0 0.0
2017-Oct-09 14:30N 45°12' E 012°16'0 0.0
2017-Oct-09 13:39N 45°12' E 012°16'0 0.0
2017-Oct-09 13:27N 45°12' E 012°16'0 0.0
2017-Oct-09 12:05N 45°12' E 012°16'0 0.0
2017-Oct-09 11:51N 45°12' E 012°16'0 0.0
2017-Oct-09 10:45N 45°12' E 012°16'0 0.0
2017-Oct-09 10:14N 45°12' E 012°16'0 0.0
2017-Oct-09 10:00N 45°12' E 012°16'0 0.0
2017-Oct-09 09:29N 45°12' E 012°16'0 0.0
2017-Oct-09 08:08N 45°12' E 012°16'0 0.0
2017-Oct-09 07:56N 45°12' E 012°16'0 0.0
2017-Oct-09 07:26N 45°12' E 012°16'0 0.0
2017-Oct-09 07:00N 45°12' E 012°16'0 0.0
2017-Oct-09 06:26N 45°12' E 012°16'0 0.0
2017-Oct-09 03:08N 45°12' E 012°16'0 0.0
2017-Oct-09 02:47N 45°12' E 012°16'0 0.0
2017-Oct-08 21:38N 45°12' E 012°16'0 0.3
2017-Oct-08 21:29N 45°13' E 012°16'1 1.9
2017-Oct-08 21:00N 45°13' E 012°16'3 5.0
2017-Oct-08 20:24N 45°14' E 012°20'2 4.1
2017-Oct-08 20:00N 45°14' E 012°23'2 4.0
2017-Oct-08 19:30N 45°14' E 012°26'3 5.9
2017-Oct-08 19:00N 45°16' E 012°29'3 6.4
2017-Oct-08 18:30N 45°16' E 012°33'510.3
2017-Oct-08 18:00N 45°13' E 012°39'510.8
2017-Oct-08 17:30N 45°10' E 012°45'510.6
2017-Oct-08 17:00N 45°06' E 012°50'510.8
2017-Oct-08 16:30N 45°01' E 012°53'510.6
2017-Oct-08 16:00N 44°56' E 012°57'510.3
2017-Oct-08 15:30N 44°51' E 012°59'510.2
2017-Oct-08 15:00N 44°47' E 013°01'510.3
2017-Oct-08 14:30N 44°42' E 013°04'510.3
2017-Oct-08 14:00N 44°37' E 013°06'510.2
2017-Oct-08 13:30N 44°32' E 013°08'510.2
2017-Oct-08 13:00N 44°27' E 013°10'510.2
2017-Oct-08 12:30N 44°22' E 013°13'510.0
2017-Oct-08 12:00N 44°18' E 013°16'  
Track history (hours):
 
Tides and Currents Weather Stations Pressure Air Temp Water Temp Dewpoint Dewpoint Depression Visibility Wind Speed Wind Dir Waves Ship Positions

Breb Countess

Last reported at 2017-Oct-17 16:06 UTC. Time now 2017-Oct-17 17:11 UTC.
Position N 37°27' E 009°06'.

Length 108 m; draft 6.5 m.

Type: Cargo ship. MMSI: 255806043.

Date/timePositionNaut miles runAvg speedWind from/ knotsBaromVisibWave heightAir tempDewpointWater temp
2017-Oct-17 16:06N 37°27' E 009°06'17010.0
2017-Oct-16 23:01N 36°53' E 012°36'110.5
2017-Oct-16 22:54N 36°53' E 012°37'410.5
2017-Oct-16 22:30N 36°51' E 012°42'510.6
2017-Oct-16 22:00N 36°48' E 012°47'810.5
2017-Oct-16 21:15N 36°44' E 012°56'310.3
2017-Oct-16 20:58N 36°43' E 012°59'610.5
2017-Oct-16 20:23N 36°40' E 013°06'410.7
2017-Oct-16 20:00N 36°38' E 013°11'610.8
2017-Oct-16 19:27N 36°36' E 013°17'510.9
2017-Oct-16 19:00N 36°33' E 013°23'610.9
2017-Oct-16 18:30N 36°31' E 013°29'710.9
2017-Oct-16 17:49N 36°27' E 013°37'310.7
2017-Oct-16 17:30N 36°26' E 013°40'510.4
2017-Oct-16 17:00N 36°23' E 013°46'610.3
2017-Oct-16 16:24N 36°20' E 013°53'410.3
2017-Oct-16 16:00N 36°19' E 013°58'610.2
2017-Oct-16 15:24N 36°16' E 014°04'410.4
2017-Oct-16 15:00N 36°14' E 014°09'510.7
2017-Oct-16 14:30N 36°12' E 014°15'1110.6
2017-Oct-16 13:30N 36°05' E 014°26'611.0
2017-Oct-16 13:00N 36°01' E 014°31'610.7
2017-Oct-16 12:28N 35°58' E 014°36'510.0
2017-Oct-16 12:00N 35°55' E 014°40'5 9.2
2017-Oct-16 11:29N 35°53' E 014°46'1 0.4
2017-Oct-16 09:02N 35°54' E 014°47'0 0.0
2017-Oct-16 05:27N 35°54' E 014°47'3 3.2
2017-Oct-16 04:41N 35°52' E 014°49'1 5.5
2017-Oct-16 04:29N 35°52' E 014°50'4 8.1
2017-Oct-16 03:59N 35°55' E 014°54'511.0
2017-Oct-16 03:30N 35°59' E 014°58'1010.9
2017-Oct-16 02:35N 36°07' E 015°04'111.1
2017-Oct-16 02:27N 36°09' E 015°05'26310.5
2017-Oct-15 01:25N 39°40' E 018°23'411.0
2017-Oct-15 01:00N 39°44' E 018°27'3110.8
2017-Oct-14 22:11N 40°13' E 018°36'211.2
2017-Oct-14 22:00N 40°15' E 018°35'811.2
2017-Oct-14 21:18N 40°23' E 018°32'411.3
2017-Oct-14 20:57N 40°26' E 018°30'511.2
2017-Oct-14 20:30N 40°30' E 018°26'611.2
2017-Oct-14 20:00N 40°34' E 018°22'611.6
2017-Oct-14 19:30N 40°39' E 018°17'29110.7
2017-Oct-13 16:17N 44°16' E 013°53'410.7
2017-Oct-13 15:54N 44°19' E 013°50'410.8
2017-Oct-13 15:30N 44°23' E 013°46'710.8
2017-Oct-13 14:51N 44°29' E 013°41'410.7
2017-Oct-13 14:30N 44°32' E 013°38'610.8
2017-Oct-13 13:59N 44°37' E 013°34'510.7
2017-Oct-13 13:29N 44°41' E 013°30'510.7
2017-Oct-13 13:00N 44°45' E 013°26'510.7
2017-Oct-13 12:30N 44°50' E 013°22'510.5
2017-Oct-13 12:00N 44°54' E 013°17'510.4
2017-Oct-13 11:30N 44°58' E 013°13'510.6
2017-Oct-13 11:00N 45°03' E 013°09'510.8
2017-Oct-13 10:30N 45°07' E 013°06'510.6
2017-Oct-13 10:00N 45°12' E 013°03'510.5
2017-Oct-13 09:30N 45°17' E 013°00'5 9.6
2017-Oct-13 09:00N 45°22' E 012°59'510.5
2017-Oct-13 08:30N 45°25' E 013°05'510.7
2017-Oct-13 08:00N 45°29' E 013°11'510.7
2017-Oct-13 07:30N 45°32' E 013°16'510.6
2017-Oct-13 07:00N 45°35' E 013°23'510.7
2017-Oct-13 06:30N 45°37' E 013°30'5 9.1
2017-Oct-13 06:00N 45°37' E 013°37'510.1
2017-Oct-13 05:30N 45°34' E 013°42'2 2.5
2017-Oct-13 04:53N 45°33' E 013°45'0 0.0
2017-Oct-13 04:29N 45°33' E 013°45'0 0.0
2017-Oct-13 03:59N 45°33' E 013°45'0 0.0
2017-Oct-13 03:26N 45°33' E 013°44'0 0.0
2017-Oct-13 02:59N 45°33' E 013°44'0 0.0
2017-Oct-13 02:23N 45°33' E 013°44'0 0.0
2017-Oct-13 01:59N 45°33' E 013°44'0 0.0
2017-Oct-13 01:29N 45°33' E 013°44'0 0.0
2017-Oct-13 00:56N 45°33' E 013°44'0 0.0
2017-Oct-13 00:29N 45°33' E 013°44'0 0.0
2017-Oct-12 23:59N 45°33' E 013°44'0 0.0
2017-Oct-12 23:26N 45°33' E 013°44'0 0.0
2017-Oct-12 22:59N 45°33' E 013°45'0 0.0
2017-Oct-12 22:29N 45°33' E 013°44'0 0.0
2017-Oct-12 21:59N 45°33' E 013°44'0 0.0
2017-Oct-12 21:29N 45°33' E 013°45'0 0.0
2017-Oct-12 20:59N 45°33' E 013°45'0 0.0
2017-Oct-12 20:29N 45°33' E 013°44'0 0.0
2017-Oct-12 19:56N 45°33' E 013°45'0 0.0
2017-Oct-12 19:29N 45°33' E 013°44'0 0.0
2017-Oct-12 18:59N 45°33' E 013°44'0 0.0
2017-Oct-12 18:26N 45°33' E 013°45'0 0.0
2017-Oct-12 17:56N 45°33' E 013°44'0 0.0
2017-Oct-12 17:29N 45°33' E 013°44'0 0.0
2017-Oct-12 16:56N 45°33' E 013°45'0 0.0
2017-Oct-12 16:26N 45°33' E 013°44'0 0.0
2017-Oct-12 15:56N 45°33' E 013°44'0 0.0
2017-Oct-12 15:29N 45°33' E 013°44'0 0.0
2017-Oct-12 14:59N 45°33' E 013°45'0 0.0
2017-Oct-12 14:26N 45°33' E 013°44'0 0.0
2017-Oct-12 13:53N 45°33' E 013°45'0 0.0
2017-Oct-12 13:29N 45°33' E 013°44'0 0.0
2017-Oct-12 12:56N 45°33' E 013°45'0 0.0
2017-Oct-12 12:11N 45°33' E 013°44'0 0.0
2017-Oct-12 11:50N 45°33' E 013°45'0 0.0
2017-Oct-12 11:26N 45°33' E 013°45'0 0.0
2017-Oct-12 10:56N 45°33' E 013°44'0 0.0
2017-Oct-12 10:29N 45°33' E 013°44'0 0.0
2017-Oct-12 09:41N 45°33' E 013°44'0 0.0
2017-Oct-12 09:29N 45°33' E 013°45'0 0.0
2017-Oct-12 08:56N 45°33' E 013°45'0 0.0
2017-Oct-12 08:29N 45°33' E 013°44'0 0.0
2017-Oct-12 07:50N 45°33' E 013°44'0 0.0
2017-Oct-12 07:23N 45°33' E 013°44'0 0.0
2017-Oct-12 06:59N 45°33' E 013°44'0 0.0
2017-Oct-12 06:29N 45°33' E 013°44'0 0.0
2017-Oct-12 05:56N 45°33' E 013°45'0 0.0
2017-Oct-12 05:29N 45°33' E 013°44'0 0.0
2017-Oct-12 04:59N 45°33' E 013°45'0 0.0
2017-Oct-12 04:29N 45°33' E 013°44'0 0.0
2017-Oct-12 03:56N 45°33' E 013°44'0 0.0
2017-Oct-12 03:29N 45°33' E 013°45'0 0.0
2017-Oct-12 02:59N 45°33' E 013°45'0 0.0
2017-Oct-12 02:29N 45°33' E 013°44'0 0.0
2017-Oct-12 01:56N 45°33' E 013°45'0 0.0
2017-Oct-12 01:29N 45°33' E 013°45'0 0.0
2017-Oct-12 00:53N 45°33' E 013°44'0 0.0
2017-Oct-12 00:17N 45°33' E 013°44'0 0.0
2017-Oct-11 23:59N 45°33' E 013°44'0 0.0
2017-Oct-11 23:26N 45°33' E 013°44'0 0.0
2017-Oct-11 22:56N 45°33' E 013°44'0 0.0
2017-Oct-11 22:29N 45°33' E 013°44'0 0.0
2017-Oct-11 21:56N 45°33' E 013°44'0 0.0
2017-Oct-11 21:26N 45°33' E 013°44'0 0.0
2017-Oct-11 20:56N 45°33' E 013°44'0 0.0
2017-Oct-11 20:29N 45°33' E 013°44'0 0.0
2017-Oct-11 19:59N 45°33' E 013°44'0 0.0
2017-Oct-11 19:29N 45°33' E 013°45'0 0.0
2017-Oct-11 18:53N 45°33' E 013°45'0 0.0
2017-Oct-11 18:29N 45°33' E 013°45'0 0.0
2017-Oct-11 17:59N 45°33' E 013°44'0 0.0
2017-Oct-11 17:29N 45°33' E 013°45'0 0.0
2017-Oct-11 16:59N 45°33' E 013°45'0 0.0
2017-Oct-10 23:59N 45°33' E 013°45'0 0.0
2017-Oct-10 23:29N 45°33' E 013°45'0 0.0
2017-Oct-10 22:56N 45°33' E 013°45'0 0.0
2017-Oct-10 22:26N 45°33' E 013°44'0 0.0
2017-Oct-10 21:53N 45°33' E 013°44'0 0.0
2017-Oct-10 21:29N 45°33' E 013°44'0 0.0
2017-Oct-10 20:59N 45°33' E 013°44'0 0.0
2017-Oct-10 20:26N 45°33' E 013°44'0 0.0
2017-Oct-10 19:56N 45°33' E 013°44'0 0.0
2017-Oct-10 19:29N 45°33' E 013°44'0 0.0
2017-Oct-10 18:59N 45°33' E 013°45'0 0.0
2017-Oct-10 18:29N 45°33' E 013°45'0 0.0
2017-Oct-10 17:56N 45°33' E 013°44'0 0.0
2017-Oct-10 17:29N 45°33' E 013°44'0 0.0
2017-Oct-10 16:53N 45°33' E 013°45'0 0.0
2017-Oct-10 16:29N 45°33' E 013°44'0 0.0
2017-Oct-10 15:59N 45°33' E 013°45'0 0.0
2017-Oct-10 15:29N 45°33' E 013°45'0 0.0
2017-Oct-10 14:59N 45°33' E 013°45'2 1.7
2017-Oct-10 14:00N 45°34' E 013°42'3 5.6
2017-Oct-10 13:30N 45°34' E 013°38'4 7.5
2017-Oct-10 13:00N 45°34' E 013°33'4 8.6
2017-Oct-10 12:30N 45°33' E 013°27'4 8.8
2017-Oct-10 12:00N 45°30' E 013°22'5 9.3
2017-Oct-10 11:30N 45°29' E 013°16'5 9.9
2017-Oct-10 11:00N 45°27' E 013°09'510.4
2017-Oct-10 10:30N 45°24' E 013°03'510.3
2017-Oct-10 10:00N 45°22' E 012°56'510.5
2017-Oct-10 09:31N 45°20' E 012°49'510.2
2017-Oct-10 09:00N 45°18' E 012°42'510.4
2017-Oct-10 08:30N 45°16' E 012°36'4 8.6
2017-Oct-10 08:00N 45°14' E 012°30'6 8.6
2017-Oct-10 07:18N 45°13' E 012°21'3 7.3
2017-Oct-10 06:57N 45°14' E 012°18'2 4.5
2017-Oct-10 06:30N 45°13' E 012°16'0 0.5
2017-Oct-10 06:00N 45°12' E 012°16'0 0.0
2017-Oct-10 05:27N 45°12' E 012°16'0 0.0
2017-Oct-10 04:39N 45°12' E 012°16'0 0.0
2017-Oct-10 04:24N 45°12' E 012°16'0 0.0
2017-Oct-10 04:00N 45°12' E 012°16'0 0.0
2017-Oct-10 03:24N 45°12' E 012°16'0 0.0
2017-Oct-10 03:00N 45°12' E 012°16'0 0.0
2017-Oct-10 02:30N 45°12' E 012°16'0 0.0
2017-Oct-10 02:00N 45°12' E 012°16'0 0.0
2017-Oct-10 01:27N 45°12' E 012°16'0 0.0
2017-Oct-10 01:00N 45°12' E 012°16'0 0.0
2017-Oct-10 00:27N 45°12' E 012°16'0 0.0
2017-Oct-10 00:00N 45°12' E 012°16'0 0.0
2017-Oct-09 23:21N 45°12' E 012°16'0 0.0
2017-Oct-09 22:57N 45°12' E 012°16'0 0.0
2017-Oct-09 22:27N 45°12' E 012°16'0 0.0
2017-Oct-09 22:00N 45°12' E 012°16'0 0.0
2017-Oct-09 21:27N 45°12' E 012°16'0 0.0
2017-Oct-09 20:57N 45°12' E 012°16'0 0.0
2017-Oct-09 20:30N 45°12' E 012°16'0 0.0
2017-Oct-09 20:00N 45°12' E 012°16'0 0.0
2017-Oct-09 18:54N 45°12' E 012°16'0 0.0
2017-Oct-09 18:00N 45°12' E 012°16'0 0.0
2017-Oct-09 17:24N 45°12' E 012°16'0 0.0
2017-Oct-09 17:00N 45°12' E 012°16'0 0.0
2017-Oct-09 16:24N 45°12' E 012°16'0 0.0
2017-Oct-09 16:00N 45°12' E 012°16'0 0.0
2017-Oct-09 15:30N 45°12' E 012°16'0 0.0
2017-Oct-09 15:00N 45°12' E 012°16'0 0.0
2017-Oct-09 14:30N 45°12' E 012°16'0 0.0
2017-Oct-09 13:39N 45°12' E 012°16'0 0.0
2017-Oct-09 13:27N 45°12' E 012°16'0 0.0
2017-Oct-09 12:05N 45°12' E 012°16'0 0.0
2017-Oct-09 11:51N 45°12' E 012°16'0 0.0
2017-Oct-09 10:45N 45°12' E 012°16'0 0.0
2017-Oct-09 10:14N 45°12' E 012°16'0 0.0
2017-Oct-09 10:00N 45°12' E 012°16'0 0.0
2017-Oct-09 09:29N 45°12' E 012°16'0 0.0
2017-Oct-09 08:08N 45°12' E 012°16'0 0.0
2017-Oct-09 07:56N 45°12' E 012°16'0 0.0
2017-Oct-09 07:26N 45°12' E 012°16'0 0.0
2017-Oct-09 07:00N 45°12' E 012°16'0 0.0
2017-Oct-09 06:26N 45°12' E 012°16'0 0.0
2017-Oct-09 03:08N 45°12' E 012°16'0 0.0
2017-Oct-09 02:47N 45°12' E 012°16'0 0.0
2017-Oct-08 21:38N 45°12' E 012°16'0 0.3
2017-Oct-08 21:29N 45°13' E 012°16'1 1.9
2017-Oct-08 21:00N 45°13' E 012°16'3 5.0
2017-Oct-08 20:24N 45°14' E 012°20'2 4.1
2017-Oct-08 20:00N 45°14' E 012°23'2 4.0
2017-Oct-08 19:30N 45°14' E 012°26'3 5.9
2017-Oct-08 19:00N 45°16' E 012°29'3 6.4
2017-Oct-08 18:30N 45°16' E 012°33'510.3
2017-Oct-08 18:00N 45°13' E 012°39'510.8
2017-Oct-08 17:30N 45°10' E 012°45'510.6
2017-Oct-08 17:00N 45°06' E 012°50'510.8
2017-Oct-08 16:30N 45°01' E 012°53'510.6
2017-Oct-08 16:00N 44°56' E 012°57'510.3
2017-Oct-08 15:30N 44°51' E 012°59'510.2
2017-Oct-08 15:00N 44°47' E 013°01'510.3
2017-Oct-08 14:30N 44°42' E 013°04'510.3
2017-Oct-08 14:00N 44°37' E 013°06'510.2
2017-Oct-08 13:30N 44°32' E 013°08'510.2
2017-Oct-08 13:00N 44°27' E 013°10'510.2
2017-Oct-08 12:30N 44°22' E 013°13'510.0
2017-Oct-08 12:00N 44°18' E 013°16'  

Dump ship's entire track history